sensor_id;sensor_type;location;lat;lon;timestamp;pressure;altitude;pressure_sealevel;temperature;humidity
21838;BME280;11081;45.946;6.140;2023-02-28T00:00:42;95124.53;;;2.16;69.70
21838;BME280;11081;45.946;6.140;2023-02-28T00:03:10;95125.78;;;2.20;68.99
21838;BME280;11081;45.946;6.140;2023-02-28T00:05:40;95125.72;;;2.36;68.76
21838;BME280;11081;45.946;6.140;2023-02-28T00:08:08;95129.81;;;2.45;68.23
21838;BME280;11081;45.946;6.140;2023-02-28T00:10:37;95121.47;;;2.43;68.40
21838;BME280;11081;45.946;6.140;2023-02-28T00:13:06;95123.69;;;2.47;68.48
21838;BME280;11081;45.946;6.140;2023-02-28T00:15:34;95121.81;;;2.40;68.72
21838;BME280;11081;45.946;6.140;2023-02-28T00:18:03;95131.19;;;2.33;69.26
21838;BME280;11081;45.946;6.140;2023-02-28T00:20:31;95132.91;;;2.41;68.83
21838;BME280;11081;45.946;6.140;2023-02-28T00:23:00;95133.59;;;2.35;68.63
21838;BME280;11081;45.946;6.140;2023-02-28T00:25:28;95130.59;;;2.23;69.29
21838;BME280;11081;45.946;6.140;2023-02-28T00:27:56;95138.41;;;2.07;69.72
21838;BME280;11081;45.946;6.140;2023-02-28T00:30:24;95139.72;;;2.03;69.70
21838;BME280;11081;45.946;6.140;2023-02-28T00:32:52;95147.06;;;2.14;69.62
21838;BME280;11081;45.946;6.140;2023-02-28T00:35:20;95155.09;;;2.19;69.71
21838;BME280;11081;45.946;6.140;2023-02-28T00:37:48;95149.19;;;2.02;70.00
21838;BME280;11081;45.946;6.140;2023-02-28T00:40:18;95155.16;;;2.03;69.77
21838;BME280;11081;45.946;6.140;2023-02-28T00:42:46;95150.81;;;2.03;70.13
21838;BME280;11081;45.946;6.140;2023-02-28T00:45:15;95143.53;;;2.07;69.83
21838;BME280;11081;45.946;6.140;2023-02-28T00:47:43;95135.16;;;2.13;69.34
21838;BME280;11081;45.946;6.140;2023-02-28T00:50:13;95131.41;;;2.24;68.88
21838;BME280;11081;45.946;6.140;2023-02-28T00:52:41;95136.81;;;2.37;68.97
21838;BME280;11081;45.946;6.140;2023-02-28T00:55:09;95142.06;;;2.43;68.46
21838;BME280;11081;45.946;6.140;2023-02-28T00:57:39;95142.06;;;2.43;68.18
21838;BME280;11081;45.946;6.140;2023-02-28T01:00:08;95135.31;;;2.42;67.90
21838;BME280;11081;45.946;6.140;2023-02-28T01:02:36;95137.84;;;2.51;67.85
21838;BME280;11081;45.946;6.140;2023-02-28T01:05:05;95137.84;;;2.51;68.15
21838;BME280;11081;45.946;6.140;2023-02-28T01:07:33;95142.31;;;2.57;67.84
21838;BME280;11081;45.946;6.140;2023-02-28T01:10:01;95138.75;;;2.58;68.03
21838;BME280;11081;45.946;6.140;2023-02-28T01:12:29;95139.09;;;2.55;68.06
21838;BME280;11081;45.946;6.140;2023-02-28T01:14:58;95129.09;;;2.60;67.80
21838;BME280;11081;45.946;6.140;2023-02-28T01:17:26;95136.13;;;2.66;67.36
21838;BME280;11081;45.946;6.140;2023-02-28T01:19:55;95132.13;;;2.63;67.16
21838;BME280;11081;45.946;6.140;2023-02-28T01:22:24;95147.69;;;2.70;66.96
21838;BME280;11081;45.946;6.140;2023-02-28T01:24:52;95149.63;;;2.68;67.24
21838;BME280;11081;45.946;6.140;2023-02-28T01:27:20;95142.88;;;2.67;67.45
21838;BME280;11081;45.946;6.140;2023-02-28T01:29:50;95144.44;;;2.76;67.07
21838;BME280;11081;45.946;6.140;2023-02-28T01:32:20;95152.16;;;2.76;66.75
21838;BME280;11081;45.946;6.140;2023-02-28T01:34:49;95138.66;;;2.74;66.83
21838;BME280;11081;45.946;6.140;2023-02-28T01:37:17;95140.59;;;2.72;66.79
21838;BME280;11081;45.946;6.140;2023-02-28T01:39:45;95143.22;;;2.64;67.14
21838;BME280;11081;45.946;6.140;2023-02-28T01:42:13;95145.88;;;2.56;67.40
21838;BME280;11081;45.946;6.140;2023-02-28T01:44:57;95146.22;;;2.53;67.19
21838;BME280;11081;45.946;6.140;2023-02-28T01:47:29;95140.72;;;2.56;67.31
21838;BME280;11081;45.946;6.140;2023-02-28T01:49:59;95145.97;;;2.62;67.08
21838;BME280;11081;45.946;6.140;2023-02-28T01:52:30;95141.00;;;2.61;67.06
21838;BME280;11081;45.946;6.140;2023-02-28T01:54:59;95142.94;;;2.59;67.31
21838;BME280;11081;45.946;6.140;2023-02-28T01:57:32;95135.91;;;2.53;67.31
21838;BME280;11081;45.946;6.140;2023-02-28T02:00:07;95135.31;;;2.42;67.77
21838;BME280;11081;45.946;6.140;2023-02-28T02:02:42;95128.03;;;2.23;68.22
21838;BME280;11081;45.946;6.140;2023-02-28T02:05:14;95126.81;;;2.11;68.52
21838;BME280;11081;45.946;6.140;2023-02-28T02:07:44;95128.09;;;2.15;68.50
21838;BME280;11081;45.946;6.140;2023-02-28T02:10:15;95128.72;;;2.17;68.99
21838;BME280;11081;45.946;6.140;2023-02-28T02:13:08;95128.00;;;2.31;67.88
21838;BME280;11081;45.946;6.140;2023-02-28T02:15:43;95124.91;;;2.36;68.20
21838;BME280;11081;45.946;6.140;2023-02-28T02:18:25;95125.72;;;2.36;67.96
21838;BME280;11081;45.946;6.140;2023-02-28T02:24:22;95128.56;;;2.41;68.21
21838;BME280;11081;45.946;6.140;2023-02-28T02:27:16;95114.38;;;2.45;67.78
21838;BME280;11081;45.946;6.140;2023-02-28T02:30:12;95113.22;;;2.48;67.79
21838;BME280;11081;45.946;6.140;2023-02-28T02:33:08;95116.91;;;2.54;67.76
21838;BME280;11081;45.946;6.140;2023-02-28T02:35:41;95109.81;;;2.56;67.90
21838;BME280;11081;45.946;6.140;2023-02-28T02:38:15;95119.34;;;2.47;67.58
21838;BME280;11081;45.946;6.140;2023-02-28T02:40:54;95115.97;;;2.47;67.99
21838;BME280;11081;45.946;6.140;2023-02-28T02:43:28;95117.25;;;2.51;67.67
21838;BME280;11081;45.946;6.140;2023-02-28T02:46:02;95122.41;;;2.51;68.17
21838;BME280;11081;45.946;6.140;2023-02-28T02:48:35;95117.34;;;2.34;68.33
21838;BME280;11081;45.946;6.140;2023-02-28T02:51:10;95111.59;;;2.24;68.79
21838;BME280;11081;45.946;6.140;2023-02-28T02:53:44;95100.97;;;2.27;68.38
21838;BME280;11081;45.946;6.140;2023-02-28T02:56:18;95106.47;;;2.24;68.48
21838;BME280;11081;45.946;6.140;2023-02-28T02:58:49;95111.06;;;2.37;68.50
21838;BME280;11081;45.946;6.140;2023-02-28T03:01:20;95111.50;;;2.40;68.63
21838;BME280;11081;45.946;6.140;2023-02-28T03:03:57;95117.28;;;2.42;68.33
21838;BME280;11081;45.946;6.140;2023-02-28T03:06:27;95129.19;;;2.43;68.49
21838;BME280;11081;45.946;6.140;2023-02-28T03:08:55;95134.31;;;2.52;68.27
21838;BME280;11081;45.946;6.140;2023-02-28T03:11:23;95131.06;;;2.50;68.40
21838;BME280;11081;45.946;6.140;2023-02-28T03:14:11;95123.84;;;2.22;68.89
21838;BME280;11081;45.946;6.140;2023-02-28T03:16:57;95122.06;;;2.23;68.84
21838;BME280;11081;45.946;6.140;2023-02-28T03:19:37;95115.16;;;2.23;69.23
21838;BME280;11081;45.946;6.140;2023-02-28T03:22:31;95119.84;;;2.20;69.43
21838;BME280;11081;45.946;6.140;2023-02-28T03:25:06;95114.41;;;2.14;69.19
21838;BME280;11081;45.946;6.140;2023-02-28T03:27:40;95115.72;;;2.10;69.22
21838;BME280;11081;45.946;6.140;2023-02-28T03:30:15;95119.09;;;2.11;69.65
21838;BME280;11081;45.946;6.140;2023-02-28T03:32:53;95123.34;;;1.96;70.03
21838;BME280;11081;45.946;6.140;2023-02-28T03:35:24;95120.47;;;1.91;69.85
21838;BME280;11081;45.946;6.140;2023-02-28T03:38:00;95124.94;;;1.97;69.85
21838;BME280;11081;45.946;6.140;2023-02-28T03:40:32;95123.69;;;1.93;70.54
21838;BME280;11081;45.946;6.140;2023-02-28T03:43:04;95123.88;;;1.83;70.68
21838;BME280;11081;45.946;6.140;2023-02-28T03:45:36;95121.81;;;1.78;71.20
21838;BME280;11081;45.946;6.140;2023-02-28T03:48:09;95121.81;;;1.78;70.92
21838;BME280;11081;45.946;6.140;2023-02-28T03:50:41;95118.53;;;1.93;70.81
21838;BME280;11081;45.946;6.140;2023-02-28T03:53:15;95119.59;;;2.06;70.29
21838;BME280;11081;45.946;6.140;2023-02-28T03:55:47;95119.81;;;1.97;70.24
21838;BME280;11081;45.946;6.140;2023-02-28T03:58:22;95118.19;;;1.96;70.14
21838;BME280;11081;45.946;6.140;2023-02-28T04:00:56;95124.63;;;2.00;69.48
21838;BME280;11081;45.946;6.140;2023-02-28T04:03:27;95129.69;;;2.16;69.13
21838;BME280;11081;45.946;6.140;2023-02-28T04:05:55;95126.47;;;2.14;69.22
21838;BME280;11081;45.946;6.140;2023-02-28T04:08:26;95115.25;;;2.07;69.68
21838;BME280;11081;45.946;6.140;2023-02-28T04:10:57;95118.50;;;2.01;69.28
21838;BME280;11081;45.946;6.140;2023-02-28T04:13:28;95116.78;;;1.85;70.22
21838;BME280;11081;45.946;6.140;2023-02-28T04:15:56;95124.34;;;1.87;70.38
21838;BME280;11081;45.946;6.140;2023-02-28T04:18:24;95121.22;;;1.68;70.57
21838;BME280;11081;45.946;6.140;2023-02-28T04:20:52;95116.38;;;1.65;70.86
21838;BME280;11081;45.946;6.140;2023-02-28T04:23:20;95119.56;;;1.75;70.63
21838;BME280;11081;45.946;6.140;2023-02-28T04:25:50;95123.22;;;1.89;70.29
21838;BME280;11081;45.946;6.140;2023-02-28T04:28:18;95124.34;;;1.87;70.41
21838;BME280;11081;45.946;6.140;2023-02-28T04:30:46;95119.47;;;2.00;70.12
21838;BME280;11081;45.946;6.140;2023-02-28T04:33:14;95126.22;;;2.01;69.93
21838;BME280;11081;45.946;6.140;2023-02-28T04:35:42;95127.34;;;1.98;69.93
21838;BME280;11081;45.946;6.140;2023-02-28T04:38:10;95132.28;;;2.08;69.52
21838;BME280;11081;45.946;6.140;2023-02-28T04:40:38;95132.63;;;2.05;69.91
21838;BME280;11081;45.946;6.140;2023-02-28T04:43:07;95136.31;;;1.71;70.71
21838;BME280;11081;45.946;6.140;2023-02-28T04:45:35;95130.50;;;1.77;70.73
21838;BME280;11081;45.946;6.140;2023-02-28T04:48:03;95135.91;;;1.91;70.70
21838;BME280;11081;45.946;6.140;2023-02-28T04:50:32;95129.28;;;1.96;70.01
21838;BME280;11081;45.946;6.140;2023-02-28T04:53:00;95129.41;;;2.03;69.63
21838;BME280;11081;45.946;6.140;2023-02-28T04:55:28;95134.22;;;2.06;69.42
21838;BME280;11081;45.946;6.140;2023-02-28T04:57:56;95129.47;;;1.87;70.73
21838;BME280;11081;45.946;6.140;2023-02-28T05:00:25;95130.16;;;1.80;71.36
21838;BME280;11081;45.946;6.140;2023-02-28T05:02:53;95134.97;;;1.83;70.79
21838;BME280;11081;45.946;6.140;2023-02-28T05:05:21;95128.84;;;1.93;70.95
21838;BME280;11081;45.946;6.140;2023-02-28T05:07:50;95135.69;;;2.00;70.11
21838;BME280;11081;45.946;6.140;2023-02-28T05:10:18;95137.53;;;1.92;70.93
21838;BME280;11081;45.946;6.140;2023-02-28T05:12:46;95151.53;;;1.81;70.45
21838;BME280;11081;45.946;6.140;2023-02-28T05:15:15;95148.22;;;1.72;71.23
21838;BME280;11081;45.946;6.140;2023-02-28T05:17:45;95164.63;;;1.63;71.02
21838;BME280;11081;45.946;6.140;2023-02-28T05:20:13;95166.28;;;1.48;72.01
21838;BME280;11081;45.946;6.140;2023-02-28T05:22:42;95163.81;;;1.63;71.45
21838;BME280;11081;45.946;6.140;2023-02-28T05:25:12;95168.78;;;1.72;71.61
21838;BME280;11081;45.946;6.140;2023-02-28T05:27:41;95167.47;;;1.76;70.94
21838;BME280;11081;45.946;6.140;2023-02-28T05:30:10;95154.41;;;1.86;71.22
21838;BME280;11081;45.946;6.140;2023-02-28T05:32:39;95164.28;;;1.66;71.20
21838;BME280;11081;45.946;6.140;2023-02-28T05:35:11;95172.38;;;1.39;72.53
21838;BME280;11081;45.946;6.140;2023-02-28T05:37:39;95176.88;;;1.45;72.68
21838;BME280;11081;45.946;6.140;2023-02-28T05:40:08;95175.72;;;1.56;71.59
21838;BME280;11081;45.946;6.140;2023-02-28T05:42:38;95177.81;;;1.68;71.73
21838;BME280;11081;45.946;6.140;2023-02-28T05:45:07;95167.47;;;1.76;71.08
21838;BME280;11081;45.946;6.140;2023-02-28T05:47:35;95161.38;;;1.77;70.70
21838;BME280;11081;45.946;6.140;2023-02-28T05:50:04;95158.63;;;1.79;71.14
21838;BME280;11081;45.946;6.140;2023-02-28T05:52:34;95161.03;;;1.80;71.23
21838;BME280;11081;45.946;6.140;2023-02-28T05:55:02;95159.13;;;1.74;71.66
21838;BME280;11081;45.946;6.140;2023-02-28T05:57:30;95153.31;;;1.89;70.87
21838;BME280;11081;45.946;6.140;2023-02-28T05:59:58;95152.91;;;2.00;70.50
21838;BME280;11081;45.946;6.140;2023-02-28T06:02:26;95161.91;;;2.04;70.45
21838;BME280;11081;45.946;6.140;2023-02-28T06:04:54;95157.25;;;1.99;70.18
21838;BME280;11081;45.946;6.140;2023-02-28T06:07:22;95157.78;;;1.87;70.45
21838;BME280;11081;45.946;6.140;2023-02-28T06:09:52;95168.72;;;1.89;70.54
21838;BME280;11081;45.946;6.140;2023-02-28T06:12:20;95170.63;;;1.95;70.83
21838;BME280;11081;45.946;6.140;2023-02-28T06:14:48;95170.34;;;1.90;70.24
21838;BME280;11081;45.946;6.140;2023-02-28T06:17:16;95176.13;;;1.92;70.40
21838;BME280;11081;45.946;6.140;2023-02-28T06:19:44;95180.94;;;1.87;70.72
21838;BME280;11081;45.946;6.140;2023-02-28T06:22:12;95192.56;;;1.74;71.26
21838;BME280;11081;45.946;6.140;2023-02-28T06:24:40;95199.66;;;1.72;70.78
21838;BME280;11081;45.946;6.140;2023-02-28T06:27:09;95201.75;;;1.61;71.27
21838;BME280;11081;45.946;6.140;2023-02-28T06:29:37;95199.06;;;1.46;72.59
21838;BME280;11081;45.946;6.140;2023-02-28T06:32:06;95193.94;;;1.46;72.37
21838;BME280;11081;45.946;6.140;2023-02-28T06:34:34;95197.41;;;1.61;72.39
21838;BME280;11081;45.946;6.140;2023-02-28T06:37:03;95198.03;;;1.71;72.06
21838;BME280;11081;45.946;6.140;2023-02-28T06:39:31;95198.97;;;1.78;71.05
21838;BME280;11081;45.946;6.140;2023-02-28T06:41:59;95201.84;;;1.83;71.08
21838;BME280;11081;45.946;6.140;2023-02-28T06:44:29;95202.94;;;1.97;71.27
21838;BME280;11081;45.946;6.140;2023-02-28T06:47:02;95197.34;;;1.86;71.37
21838;BME280;11081;45.946;6.140;2023-02-28T06:49:31;95206.41;;;1.73;71.64
21838;BME280;11081;45.946;6.140;2023-02-28T06:51:59;95210.25;;;1.77;71.70
21838;BME280;11081;45.946;6.140;2023-02-28T06:54:27;95202.00;;;1.90;71.53
21838;BME280;11081;45.946;6.140;2023-02-28T06:56:57;95198.66;;;1.81;71.38
21838;BME280;11081;45.946;6.140;2023-02-28T06:59:25;95206.34;;;1.90;71.11
21838;BME280;11081;45.946;6.140;2023-02-28T07:01:54;95206.16;;;1.99;71.37
21838;BME280;11081;45.946;6.140;2023-02-28T07:04:22;95209.13;;;1.72;71.62
21838;BME280;11081;45.946;6.140;2023-02-28T07:06:51;95200.28;;;1.66;71.90
21838;BME280;11081;45.946;6.140;2023-02-28T07:09:19;95212.47;;;1.80;71.56
21838;BME280;11081;45.946;6.140;2023-02-28T07:11:47;95211.81;;;1.87;71.51
21838;BME280;11081;45.946;6.140;2023-02-28T07:14:15;95209.56;;;1.92;70.96
21838;BME280;11081;45.946;6.140;2023-02-28T07:16:43;95206.03;;;1.93;70.80
21838;BME280;11081;45.946;6.140;2023-02-28T07:19:13;95219.84;;;1.92;71.63
21838;BME280;11081;45.946;6.140;2023-02-28T07:21:41;95205.72;;;1.79;71.44
21838;BME280;11081;45.946;6.140;2023-02-28T07:24:09;95210.03;;;1.95;71.30
21838;BME280;11081;45.946;6.140;2023-02-28T07:26:37;95213.34;;;2.12;70.67
21838;BME280;11081;45.946;6.140;2023-02-28T07:29:05;95211.88;;;2.18;70.10
21838;BME280;11081;45.946;6.140;2023-02-28T07:31:33;95213.94;;;2.30;70.09
21838;BME280;11081;45.946;6.140;2023-02-28T07:34:01;95214.84;;;2.37;69.49
21838;BME280;11081;45.946;6.140;2023-02-28T07:36:31;95213.88;;;2.38;69.47
21838;BME280;11081;45.946;6.140;2023-02-28T07:38:59;95217.13;;;2.32;70.05
21838;BME280;11081;45.946;6.140;2023-02-28T07:41:27;95223.22;;;2.39;69.55
21838;BME280;11081;45.946;6.140;2023-02-28T07:43:56;95220.91;;;2.44;69.49
21838;BME280;11081;45.946;6.140;2023-02-28T07:46:26;95220.09;;;2.13;70.36
21838;BME280;11081;45.946;6.140;2023-02-28T07:48:56;95221.94;;;2.35;69.87
21838;BME280;11081;45.946;6.140;2023-02-28T07:51:26;95230.22;;;2.54;69.30
21838;BME280;11081;45.946;6.140;2023-02-28T07:53:56;95231.78;;;2.63;69.04
21838;BME280;11081;45.946;6.140;2023-02-28T07:56:24;95230.13;;;2.70;68.34
21838;BME280;11081;45.946;6.140;2023-02-28T07:58:52;95222.69;;;2.75;68.72
21838;BME280;11081;45.946;6.140;2023-02-28T08:01:20;95231.16;;;2.61;68.66
21838;BME280;11081;45.946;6.140;2023-02-28T08:03:48;95236.63;;;2.58;69.24
21838;BME280;11081;45.946;6.140;2023-02-28T08:06:18;95233.28;;;2.80;68.43
21838;BME280;11081;45.946;6.140;2023-02-28T08:08:46;95234.25;;;2.79;68.01
21838;BME280;11081;45.946;6.140;2023-02-28T08:11:16;95237.81;;;2.78;68.19
21838;BME280;11081;45.946;6.140;2023-02-28T08:13:45;95224.66;;;2.73;68.51
21838;BME280;11081;45.946;6.140;2023-02-28T08:16:14;95239.31;;;2.95;68.33
21838;BME280;11081;45.946;6.140;2023-02-28T08:18:44;95222.53;;;2.99;67.87
21838;BME280;11081;45.946;6.140;2023-02-28T08:21:12;95230.72;;;2.80;69.23
21838;BME280;11081;45.946;6.140;2023-02-28T08:23:40;95229.03;;;2.95;68.49
21838;BME280;11081;45.946;6.140;2023-02-28T08:26:08;95226.03;;;3.06;67.27
21838;BME280;11081;45.946;6.140;2023-02-28T08:28:39;95227.97;;;3.04;66.71
21838;BME280;11081;45.946;6.140;2023-02-28T08:31:08;95224.41;;;3.05;66.61
21838;BME280;11081;45.946;6.140;2023-02-28T08:33:37;95234.03;;;3.12;65.79
21838;BME280;11081;45.946;6.140;2023-02-28T08:36:07;95232.31;;;3.27;66.11
21838;BME280;11081;45.946;6.140;2023-02-28T08:38:35;95226.13;;;3.36;65.88
21838;BME280;11081;45.946;6.140;2023-02-28T08:41:05;95241.25;;;3.39;65.45
21838;BME280;11081;45.946;6.140;2023-02-28T08:43:35;95238.59;;;3.47;65.19
21838;BME280;11081;45.946;6.140;2023-02-28T08:46:05;95235.53;;;3.29;65.08
21838;BME280;11081;45.946;6.140;2023-02-28T08:48:35;95226.34;;;3.26;65.44
21838;BME280;11081;45.946;6.140;2023-02-28T08:51:07;95242.28;;;3.30;65.11
21838;BME280;11081;45.946;6.140;2023-02-28T08:53:36;95241.94;;;3.33;64.77
21838;BME280;11081;45.946;6.140;2023-02-28T08:56:07;95240.56;;;3.45;65.20
21838;BME280;11081;45.946;6.140;2023-02-28T08:58:35;95238.69;;;3.54;65.01
21838;BME280;11081;45.946;6.140;2023-02-28T09:01:10;95229.38;;;3.67;64.24
21838;BME280;11081;45.946;6.140;2023-02-28T09:03:39;95245.75;;;3.75;63.13
21838;BME280;11081;45.946;6.140;2023-02-28T09:06:09;95248.28;;;3.45;63.07
21838;BME280;11081;45.946;6.140;2023-02-28T09:08:38;95251.94;;;3.36;64.16
21838;BME280;11081;45.946;6.140;2023-02-28T09:11:07;95237.56;;;3.56;64.68
21838;BME280;11081;45.946;6.140;2023-02-28T09:13:35;95244.69;;;3.54;63.38
21838;BME280;11081;45.946;6.140;2023-02-28T09:16:06;95256.47;;;3.34;63.28
21838;BME280;11081;45.946;6.140;2023-02-28T09:18:36;95249.00;;;2.93;63.76
21838;BME280;11081;45.946;6.140;2023-02-28T09:21:05;95240.81;;;3.13;63.82
21838;BME280;11081;45.946;6.140;2023-02-28T09:23:33;95238.41;;;3.34;63.46
21838;BME280;11081;45.946;6.140;2023-02-28T09:26:05;95254.19;;;3.31;64.13
21838;BME280;11081;45.946;6.140;2023-02-28T09:28:33;95252.19;;;3.41;63.11
21838;BME280;11081;45.946;6.140;2023-02-28T09:31:01;95255.69;;;3.48;62.79
21838;BME280;11081;45.946;6.140;2023-02-28T09:33:31;95255.41;;;3.81;62.47
21838;BME280;11081;45.946;6.140;2023-02-28T09:36:02;95252.00;;;3.95;61.90
21838;BME280;11081;45.946;6.140;2023-02-28T09:38:31;95260.13;;;4.07;61.15
21838;BME280;11081;45.946;6.140;2023-02-28T09:41:00;95263.88;;;4.04;61.41
21838;BME280;11081;45.946;6.140;2023-02-28T09:43:33;95268.06;;;4.05;61.48
21838;BME280;11081;45.946;6.140;2023-02-28T09:46:08;95260.78;;;4.23;60.91
21838;BME280;11081;45.946;6.140;2023-02-28T09:48:44;95249.97;;;4.35;60.44
21838;BME280;11081;45.946;6.140;2023-02-28T09:51:26;95248.66;;;4.39;60.44
21838;BME280;11081;45.946;6.140;2023-02-28T09:53:57;95257.09;;;4.47;60.47
21838;BME280;11081;45.946;6.140;2023-02-28T09:56:32;95253.09;;;4.45;60.45
21838;BME280;11081;45.946;6.140;2023-02-28T09:59:02;95263.88;;;4.34;60.50
21838;BME280;11081;45.946;6.140;2023-02-28T10:01:38;95265.75;;;4.40;60.66
21838;BME280;11081;45.946;6.140;2023-02-28T10:04:14;95260.06;;;4.00;60.67
21838;BME280;11081;45.946;6.140;2023-02-28T10:06:48;95259.69;;;4.03;61.50
21838;BME280;11081;45.946;6.140;2023-02-28T10:09:19;95261.66;;;4.01;61.88
21838;BME280;11081;45.946;6.140;2023-02-28T10:11:52;95256.31;;;4.17;61.60
21838;BME280;11081;45.946;6.140;2023-02-28T10:14:24;95258.09;;;4.32;60.67
21838;BME280;11081;45.946;6.140;2023-02-28T10:16:56;95263.06;;;3.89;61.22
21838;BME280;11081;45.946;6.140;2023-02-28T10:19:29;95256.09;;;3.75;62.20
21838;BME280;11081;45.946;6.140;2023-02-28T10:22:03;95258.25;;;3.86;62.19
21838;BME280;11081;45.946;6.140;2023-02-28T10:24:35;95254.91;;;4.00;62.34
21838;BME280;11081;45.946;6.140;2023-02-28T10:27:14;95251.78;;;4.05;62.30
21838;BME280;11081;45.946;6.140;2023-02-28T10:29:44;95254.88;;;4.29;61.53
21838;BME280;11081;45.946;6.140;2023-02-28T10:32:15;95260.59;;;4.40;61.41
21838;BME280;11081;45.946;6.140;2023-02-28T10:34:44;95258.78;;;4.55;60.54
21838;BME280;11081;45.946;6.140;2023-02-28T10:37:14;95260.56;;;4.54;60.70
21838;BME280;11081;45.946;6.140;2023-02-28T10:39:45;95258.72;;;4.34;60.55
21838;BME280;11081;45.946;6.140;2023-02-28T10:42:23;95266.56;;;4.40;60.33
21838;BME280;11081;45.946;6.140;2023-02-28T10:45:05;95276.16;;;4.46;60.44
21838;BME280;11081;45.946;6.140;2023-02-28T10:47:34;95263.25;;;4.61;60.94
21838;BME280;11081;45.946;6.140;2023-02-28T10:50:26;95273.63;;;4.82;60.77
21838;BME280;11081;45.946;6.140;2023-02-28T10:53:07;95270.94;;;4.76;61.68
21838;BME280;11081;45.946;6.140;2023-02-28T10:55:36;95278.69;;;4.90;60.21
21838;BME280;11081;45.946;6.140;2023-02-28T10:58:20;95271.91;;;4.89;59.68
21838;BME280;11081;45.946;6.140;2023-02-28T11:00:49;95270.47;;;5.02;60.95
21838;BME280;11081;45.946;6.140;2023-02-28T11:03:25;95275.38;;;5.18;60.11
21838;BME280;11081;45.946;6.140;2023-02-28T11:05:53;95273.78;;;5.17;59.25
21838;BME280;11081;45.946;6.140;2023-02-28T11:08:23;95272.75;;;5.11;60.17
21838;BME280;11081;45.946;6.140;2023-02-28T11:10:56;95274.16;;;5.14;59.96
21838;BME280;11081;45.946;6.140;2023-02-28T11:13:32;95274.31;;;4.91;59.71
21838;BME280;11081;45.946;6.140;2023-02-28T11:16:02;95270.94;;;4.90;60.30
21838;BME280;11081;45.946;6.140;2023-02-28T11:18:37;95270.91;;;5.27;60.89
21838;BME280;11081;45.946;6.140;2023-02-28T11:21:09;95269.16;;;5.55;59.62
21838;BME280;11081;45.946;6.140;2023-02-28T11:23:45;95275.03;;;5.21;59.48
21838;BME280;11081;45.946;6.140;2023-02-28T11:26:13;95265.19;;;5.31;59.76
21838;BME280;11081;45.946;6.140;2023-02-28T11:28:42;95263.81;;;5.57;58.77
21838;BME280;11081;45.946;6.140;2023-02-28T11:31:18;95260.84;;;5.60;59.45
21838;BME280;11081;45.946;6.140;2023-02-28T11:33:50;95260.94;;;5.73;58.78
21838;BME280;11081;45.946;6.140;2023-02-28T11:36:20;95261.81;;;5.59;58.58
21838;BME280;11081;45.946;6.140;2023-02-28T11:38:56;95245.56;;;5.65;59.44
21838;BME280;11081;45.946;6.140;2023-02-28T11:41:45;95243.47;;;5.54;57.98
21838;BME280;11081;45.946;6.140;2023-02-28T11:44:38;95246.50;;;4.93;60.20
21838;BME280;11081;45.946;6.140;2023-02-28T11:47:14;95243.50;;;4.75;62.15
21838;BME280;11081;45.946;6.140;2023-02-28T11:49:50;95243.22;;;4.84;62.62
21838;BME280;11081;45.946;6.140;2023-02-28T11:52:35;95240.78;;;5.19;60.00
21838;BME280;11081;45.946;6.140;2023-02-28T11:55:17;95240.34;;;5.15;61.04
21838;BME280;11081;45.946;6.140;2023-02-28T11:58:04;95240.41;;;5.01;60.94
21838;BME280;11081;45.946;6.140;2023-02-28T12:00:45;95237.19;;;5.20;61.72
21838;BME280;11081;45.946;6.140;2023-02-28T12:03:26;95236.28;;;5.06;60.93
21838;BME280;11081;45.946;6.140;2023-02-28T12:06:02;95237.19;;;5.20;62.29
21838;BME280;11081;45.946;6.140;2023-02-28T12:08:44;95237.09;;;5.07;62.35
21838;BME280;11081;45.946;6.140;2023-02-28T12:11:22;95235.34;;;4.93;61.01
21838;BME280;11081;45.946;6.140;2023-02-28T12:14:03;95227.78;;;4.91;61.98
21838;BME280;11081;45.946;6.140;2023-02-28T12:16:50;95225.53;;;5.03;61.20
21838;BME280;11081;45.946;6.140;2023-02-28T12:19:23;95228.19;;;4.95;61.47
21838;BME280;11081;45.946;6.140;2023-02-28T12:22:20;95225.38;;;4.89;61.14
21838;BME280;11081;45.946;6.140;2023-02-28T12:25:22;95219.34;;;5.25;61.03
21838;BME280;11081;45.946;6.140;2023-02-28T12:27:53;95211.66;;;5.60;60.45
21838;BME280;11081;45.946;6.140;2023-02-28T12:30:24;95213.13;;;5.97;59.68
21838;BME280;11081;45.946;6.140;2023-02-28T12:32:56;95206.69;;;6.21;59.37
21838;BME280;11081;45.946;6.140;2023-02-28T12:35:31;95206.16;;;6.32;58.65
21838;BME280;11081;45.946;6.140;2023-02-28T12:38:03;95212.22;;;6.11;57.78
21838;BME280;11081;45.946;6.140;2023-02-28T12:40:42;95210.25;;;5.85;60.54
21838;BME280;11081;45.946;6.140;2023-02-28T12:43:13;95197.09;;;5.31;59.34
21838;BME280;11081;45.946;6.140;2023-02-28T12:45:46;95199.75;;;5.16;60.34
21838;BME280;11081;45.946;6.140;2023-02-28T12:48:21;95195.81;;;5.41;60.45
21838;BME280;11081;45.946;6.140;2023-02-28T12:50:51;95198.97;;;5.65;59.43
21838;BME280;11081;45.946;6.140;2023-02-28T12:53:24;95191.72;;;5.54;59.24
21838;BME280;11081;45.946;6.140;2023-02-28T12:56:02;95189.44;;;5.72;59.07
21838;BME280;11081;45.946;6.140;2023-02-28T12:58:38;95184.31;;;6.06;58.77
21838;BME280;11081;45.946;6.140;2023-02-28T13:01:34;95182.56;;;6.20;58.69
21838;BME280;11081;45.946;6.140;2023-02-28T13:04:28;95182.25;;;6.36;57.99
21838;BME280;11081;45.946;6.140;2023-02-28T13:07:19;95181.06;;;6.39;58.07
21838;BME280;11081;45.946;6.140;2023-02-28T13:09:52;95185.31;;;6.05;58.05
21838;BME280;11081;45.946;6.140;2023-02-28T13:12:21;95182.03;;;5.90;58.14
21838;BME280;11081;45.946;6.140;2023-02-28T13:15:03;95187.00;;;5.92;60.34
21838;BME280;11081;45.946;6.140;2023-02-28T13:17:32;95181.94;;;6.11;58.45
21838;BME280;11081;45.946;6.140;2023-02-28T13:20:01;95180.25;;;6.32;58.53
21838;BME280;11081;45.946;6.140;2023-02-28T13:22:40;95178.66;;;6.37;57.18
21838;BME280;11081;45.946;6.140;2023-02-28T13:34:41;95180.78;;;6.68;56.43
21838;BME280;11081;45.946;6.140;2023-02-28T13:37:36;95174.00;;;6.67;55.26
21838;BME280;11081;45.946;6.140;2023-02-28T13:40:30;95179.94;;;6.61;55.50
21838;BME280;11081;45.946;6.140;2023-02-28T13:43:07;95177.59;;;6.73;55.90
21838;BME280;11081;45.946;6.140;2023-02-28T13:45:36;95181.53;;;6.62;56.67
21838;BME280;11081;45.946;6.140;2023-02-28T13:48:16;95181.72;;;6.06;55.86